Pagrindinis puslapis
METAR-TAF:

METAR-TAF

Oro uostai :

Sundsvalis-Herniosandas, Švedija

platuma: 62-32N, ilguma: 017-27E, Aukštis: 4 m

Dabartinis oras

Ataskaita buvo paskelbta 21 minutes, ne 07:20 UTC
Vėjas 1 kt nuo kintamojo kryptimis
Temperatūra -6°C
Drėgmė 100%
Slėgis 985 hPa
Matomumas 10 km arba daugiau

METAR: ESNN 080720Z AUTO VRB01KT 9999 NCD M06/M06 Q0985

Laikas: 08:41 (07:41 UTC)

Prognozė

Ataskaita buvo paskelbta 20 valandos ir 11 minutes, ne 11:30 UTC
Prognozė galioja nuo 07 metu 12 UTC su 07 metu 15 UTC
Vėjas 4 kt iš Vakarų/Šiaurės Vakarų
Matomumas 10 km arba daugiau
nėra debesų žemiau 1500 m ir nėra kamuolinių lietaus debesų

TAF: ESNN 071130Z 0712/0715 30004KT CAVOK

Orai ataskaitas ir orų prognozės (METAR, TAF).

turimą stotys yra geltonos ir raudonos taškus žemėlapyje.

Perkelti pele per norėdami pamatyti stoties vardą.

Tada spustelėkite, norėdami matyti oro stebėjimo ir prognozės.

Norėdami pakeisti žemėlapį: spustelėkite ant žalios mygtukų su juodo kryžiaus žemyn,; žalią mygtuką su brūkšneliu, jei norite nutolinti; arba žalių rodyklių gretimoms žemėlapius.


METAR-TAF: